KBOI/BOI METAR and TAF weather

Enter ICAO airport designator
Station Type Date Time Source
KBOI METAR 2022/12/10 01:53 UTC NOAA

KBOI 100153Z 11011KT 10SM CLR 00/M07 A3002 RMK AO2 SLP184 T00001067


Station Type Date Time Source
KBOI Decoded METAR 2022/12/10 01:53 UTC NOAA

BOISE AIR TERMINAL, ID, United States (KBOI) 43-34N 116-14W 875M
Dec 09, 2022 - 08:53 PM EST / 2022.12.10 0153 UTC
Wind: from the ESE (110 degrees) at 13 MPH (11 KT):0
Visibility: 10 mile(s):0
Sky conditions: clear
Temperature: 32.0 F (0.0 C)
Windchill: 23 F (-5 C):1
Dew Point: 19.9 F (-6.7 C)
Relative Humidity: 60%
Pressure (altimeter): 30.02 in. Hg (1016 hPa)
ob: KBOI 100153Z 11011KT 10SM CLR 00/M07 A3002 RMK AO2 SLP184 T00001067
cycle: 2

Station Type Date Time Source
KBOI TAF 2022/12/09 18:36 UTC NOAA

TAF KBOI 091735Z 0918/1018 VRB05KT P6SM SCT070
FM100300 13012KT P6SM OVC100
FM100900 12013G23KT 3SM -SN BR OVC040

Example: see airport list